Ride Results

Stockyard Hill (18-07-2009)
Ride distance: 86.0 km

Outcomes - Stockyard Hill (18-07-2009)
Division No. of Entries Retired / DNE Completed Withdrawn Ineligible V/O Percentage Completed
HW 7 - 6 - - 1 85.71%
MW 19 - 15 1 - 3 78.95%
LW 11 - 9 1 - 1 81.82%
JN 2 - 1 - - 1 50.00%
Totals 39 - 31 2 - 6 79.49%
Results - Stockyard Hill (18-07-2009)
No. Rider Horse Place Time Leg Speeds Total
Km/Hr
H/R bpm
Heavyweight
111 Greg May Silver Request 1 4:57:00 18.8, 16.1 17.37 30, 47, 54 (Avg:50)
82 Jarrod Robinson Pattersons Curse 1 (BC) 4:57:00 18.6, 16.2 17.37 37, 52, 52 (Avg:52)
141 Lorraine Cubbin Clovelly Park Shandara 3 6:14:00 13.7, 13.7 13.80 32, 42, 54 (Avg:48)
177 Vincent Comer JR 4 6:35:00 13.0, 13.0 13.06 34, 48, 58 (Avg:53)
213 Amanda Jakiel Taylorsglen Aztec 5 8:08:00 11.7, 9.5 10.57 32, 40, 41 (Avg:40)
198 Tony Thorneycroft Aloha Farina 6 8:19:00 10.3, 10.3 10.34 32, 40, 45 (Avg:42)
58 Dianne Tobin Cromarty Park Simply The Best Heart Rate L2 0:00:00 11.0, 11.7 - 36, 54, 65 (Avg:59)
Middleweight
42 Hans Peuker Marybank Celia 1 (BC) 4:58:00 18.8, 16.0 17.32 32, 42, 48 (Avg:45)
181 Sharee Court Granjen Ruben James 2 6:06:00 16.0, 12.5 14.10 32, 54, 58 (Avg:56)
160 Jo-Anne Francis Hansaar 2 6:06:00 14.8, 13.4 14.10 42, 44, 46 (Avg:45)
70 Fiona Passarin Coranderrk Edison 2 6:06:00 16.0, 12.5 14.10 44, 48, 59 (Avg:53)
743 Sally Cowan Capleach Mutineer 5 6:09:00 14.7, 13.2 13.98 28, 39, 50 (Avg:44)
142 Jan Scholes Gayland Mariah 6 6:14:00 13.7, 13.7 13.80 29, 38, 52 (Avg:45)
13 Linda Tanian Castlebar Darthvader 7 6:28:00 13.6, 12.9 13.30 35, 48, 55 (Avg:51)
84 Kristie Taprell Castlebar Kalahari 7 6:28:00 13.6, 12.9 13.30 42, 49, 51 (Avg:50)
69 Sue Cavill Koonwarra Kavalier 9 7:11:00 12.2, 11.6 11.97 32, 48, 52 (Avg:50)
78 Jennifer Pitman Meg 10 7:29:00 12.2, 10.7 11.49 34, 43, 57 (Avg:50)
758 Steve Blackhurst Rowallan Nara 11 7:48:00 11.7, 10.4 11.03 35, 41, 40 (Avg:40)
757 Tracey Stoneman Quigley 11 7:48:00 11.7, 10.4 11.03 32, 44, 48 (Avg:46)
2 Carole Bourke Warrawee Lazan 13 8:07:00 11.6, 9.6 10.60 36, 54, 58 (Avg:56)
756 Patricia Mesiti Talika Shahn 14 8:22:00 11.6, 9.2 10.28 40, 45, 52 (Avg:48)
746 Kerrin Turney Kismet 14 8:22:00 11.3, 9.4 10.28 38, 47, 56 (Avg:51)
215 Kim Fitzpatrick Cieanna Lame L2 0:00:00 14.6, 12.6 - 43, 46, 58 (Avg:52)
89 Sheryl Herbert Just Shakira Withdrawn L2 0:00:00 - - 36, 45, 40 (Avg:42)
133 Barry Sinclair Chipawood Tashi Lame L2 0:00:00 13.7, 12.4 - 38, 42, 55 (Avg:48)
56 Wendy Bootle Blue Bopp Lame P/R 0:00:00 - - 32
Lightweight
184 Shannon Howe Parlour Mountain Pandora 1 (BC) 6:28:00 13.6, 12.9 13.30 34, 44, 52 (Avg:48)
91 Kim Noble Brodie 2 7:29:00 12.1, 10.9 11.49 27, 47, 50 (Avg:48)
73 Rachael Saunders Big Charles 3 7:37:00 12.2, 10.4 11.29 30, 48, 45 (Avg:46)
210 Fiona Hodges Elphyn Ranique 4 7:48:00 11.7, 10.4 11.03 28, 44, 46 (Avg:45)
25 Kelly Jol Scrupulous 5 8:08:00 11.7, 9.5 10.57 33, 48, 45 (Avg:46)
103 Jess Welsh Sutket Farm Damareef 6 8:19:00 10.7, 9.9 10.34 33, 42, 46 (Avg:44)
744 Cindy Garland Summer Lovin 7 8:22:00 11.6, 9.2 10.28 34, 44, 46 (Avg:45)
8 Jane McLaughlin Bremervale Promise 7 8:22:00 11.6, 9.2 10.28 28, 42, 46 (Avg:44)
114 Helen Spencer Kanada 7 8:22:00 11.3, 9.4 10.28 36, 44, 49 (Avg:46)
144 Marie Gillett Radiums Rusty Lame L2 0:00:00 11.6, 9.6 - 41, 47, 48 (Avg:47)
49 Jessica Remfry Summit Park Raz Withdrawn L2 0:00:00 - - 36, 44, 36 (Avg:40)
Junior
90 Samantha Noble Springridge Bungendore 1 (BC) 7:29:00 12.1, 10.9 11.49 28, 37, 36 (Avg:36)
745 Tegan Gillingham Miss Freckles Heart Rate L1 0:00:00 11.3 - 42, 76 (Avg:76)